createdAt,value
2023-04-20T00:01:30.971Z,100.00
2023-04-20T00:03:58.410Z,100.00
2023-04-20T00:06:29.841Z,100.00
2023-04-20T00:08:57.233Z,100.00
2023-04-20T00:11:24.951Z,100.00
2023-04-20T00:13:52.152Z,100.00
2023-04-20T00:16:19.784Z,100.00
2023-04-20T00:18:47.327Z,100.00
2023-04-20T00:21:15.297Z,100.00
2023-04-20T00:23:42.717Z,100.00
2023-04-20T00:26:10.728Z,100.00
2023-04-20T00:28:38.551Z,100.00
2023-04-20T00:31:08.198Z,100.00
2023-04-20T00:33:35.551Z,100.00
2023-04-20T00:36:03.406Z,100.00
2023-04-20T00:38:30.616Z,100.00
2023-04-20T00:41:00.280Z,100.00
2023-04-20T00:43:27.494Z,100.00
2023-04-20T00:45:55.170Z,100.00
2023-04-20T00:48:23.007Z,100.00
2023-04-20T00:50:51.077Z,100.00
2023-04-20T00:53:19.265Z,100.00
2023-04-20T00:55:47.574Z,100.00
2023-04-20T00:58:14.834Z,100.00
2023-04-20T01:00:42.345Z,100.00
2023-04-20T01:03:10.959Z,100.00
2023-04-20T01:05:39.121Z,100.00
2023-04-20T01:08:07.002Z,100.00
2023-04-20T01:10:34.577Z,100.00
2023-04-20T01:13:01.874Z,100.00
2023-04-20T01:15:29.697Z,100.00
2023-04-20T01:17:58.110Z,100.00
2023-04-20T01:20:25.720Z,100.00
2023-04-20T01:22:54.632Z,100.00
2023-04-20T01:25:22.317Z,100.00
2023-04-20T01:27:49.554Z,100.00
2023-04-20T01:30:17.410Z,100.00
2023-04-20T01:32:45.152Z,100.00
2023-04-20T01:35:12.983Z,100.00
2023-04-20T01:37:41.219Z,100.00
2023-04-20T01:40:10.724Z,100.00
2023-04-20T01:42:38.399Z,100.00
2023-04-20T01:45:06.686Z,100.00
2023-04-20T01:47:36.004Z,100.00
2023-04-20T01:50:03.722Z,100.00
2023-04-20T01:52:31.531Z,100.00
2023-04-20T01:54:59.154Z,100.00
2023-04-20T01:57:26.415Z,100.00
2023-04-20T01:59:54.709Z,100.00
2023-04-20T02:02:22.018Z,100.00
2023-04-20T02:04:49.641Z,100.00
2023-04-20T02:07:16.905Z,100.00
2023-04-20T02:09:44.383Z,100.00
2023-04-20T02:12:11.554Z,100.00
2023-04-20T02:14:40.574Z,100.00
2023-04-20T02:17:10.800Z,100.00
2023-04-20T02:19:38.555Z,100.00
2023-04-20T02:22:05.789Z,100.00
2023-04-20T02:24:33.369Z,100.00
2023-04-20T02:27:01.264Z,100.00
2023-04-20T02:29:28.804Z,100.00
2023-04-20T02:31:56.358Z,100.00
2023-04-20T02:34:24.579Z,100.00
2023-04-20T02:36:51.909Z,100.00
2023-04-20T02:39:19.551Z,100.00
2023-04-20T02:41:46.994Z,100.00
2023-04-20T02:44:14.577Z,100.00
2023-04-20T02:46:41.917Z,100.00
2023-04-20T02:49:09.782Z,100.00
2023-04-20T02:51:41.979Z,100.00
2023-04-20T02:54:09.563Z,100.00
2023-04-20T02:56:37.659Z,100.00
2023-04-20T02:59:09.432Z,100.00
2023-04-20T03:01:42.857Z,100.00
2023-04-20T03:04:21.179Z,100.00
2023-04-20T03:07:07.946Z,100.00
2023-04-20T03:09:37.529Z,100.00
2023-04-20T03:12:07.610Z,100.00
2023-04-20T03:14:53.032Z,100.00
2023-04-20T03:17:25.748Z,100.00
2023-04-20T03:19:53.330Z,100.00
2023-04-20T03:22:20.520Z,100.00
2023-04-20T03:24:53.625Z,100.00
2023-04-20T03:27:40.996Z,100.00
2023-04-20T03:30:13.115Z,100.00
2023-04-20T03:32:41.923Z,100.00
2023-04-20T03:35:09.806Z,100.00
2023-04-20T03:37:37.925Z,100.00
2023-04-20T03:40:08.713Z,100.00
2023-04-20T03:42:37.322Z,100.00
2023-04-20T03:45:06.803Z,100.00
2023-04-20T03:47:34.170Z,100.00
2023-04-20T03:50:01.810Z,100.00
2023-04-20T03:52:29.195Z,100.00
2023-04-20T03:54:57.799Z,100.00
2023-04-20T03:57:25.110Z,100.00
2023-04-20T03:59:52.854Z,100.00
2023-04-20T04:02:23.854Z,100.00
2023-04-20T04:04:53.123Z,100.00
2023-04-20T04:07:22.441Z,87.76
2023-04-20T04:09:50.735Z,86.99
2023-04-20T04:12:18.091Z,86.40
2023-04-20T04:14:46.424Z,86.03
2023-04-20T04:17:15.620Z,84.27
2023-04-20T04:37:49.871Z,56.81
2023-04-20T04:40:18.395Z,53.36
2023-04-20T04:42:48.725Z,51.46
2023-04-20T04:45:16.630Z,50.89
2023-04-20T04:47:44.266Z,51.95
2023-04-20T04:50:13.013Z,48.29
2023-04-20T04:52:40.681Z,49.76
2023-04-20T04:55:09.886Z,46.87
2023-04-20T04:57:38.815Z,42.77
2023-04-20T05:00:11.642Z,41.39
2023-04-20T05:02:39.518Z,38.55
2023-04-20T05:05:10.017Z,38.69
2023-04-20T05:07:38.653Z,37.30
2023-04-20T05:10:07.350Z,38.33
2023-04-20T05:12:34.918Z,35.18
2023-04-20T05:15:02.320Z,32.75
2023-04-20T05:17:29.905Z,34.43
2023-04-20T05:19:57.186Z,33.64
2023-04-20T05:22:24.739Z,34.15
2023-04-20T05:24:51.907Z,36.27
2023-04-20T05:27:19.369Z,37.06
2023-04-20T05:29:46.577Z,41.01
2023-04-20T05:32:14.030Z,41.13
2023-04-20T05:34:41.405Z,45.45
2023-04-20T05:37:09.535Z,47.35
2023-04-20T05:39:36.741Z,50.00
2023-04-20T05:42:04.253Z,50.29
2023-04-20T05:44:31.536Z,53.45
2023-04-20T05:46:59.032Z,54.91
2023-04-20T05:49:26.322Z,54.72
2023-04-20T05:51:53.869Z,57.06
2023-04-20T05:54:21.089Z,57.27
2023-04-20T05:56:48.556Z,54.28
2023-04-20T05:59:17.470Z,52.13
2023-04-20T06:01:45.099Z,46.23
2023-04-20T06:04:12.659Z,41.07
2023-04-20T06:06:40.520Z,37.64
2023-04-20T06:09:07.754Z,35.50
2023-04-20T06:11:35.560Z,34.40
2023-04-20T06:14:02.800Z,33.49
2023-04-20T06:16:30.425Z,32.45
2023-04-20T06:18:57.737Z,33.17
2023-04-20T06:21:27.342Z,30.52
2023-04-20T06:23:54.462Z,30.57
2023-04-20T06:26:22.225Z,28.63
2023-04-20T06:28:51.927Z,27.26
2023-04-20T06:31:20.298Z,29.30
2023-04-20T06:33:47.563Z,29.56
2023-04-20T06:36:15.430Z,29.94
2023-04-20T06:38:42.630Z,31.21
2023-04-20T06:41:10.104Z,28.08
2023-04-20T06:43:37.308Z,27.71
2023-04-20T06:46:04.840Z,25.78
2023-04-20T06:48:33.144Z,26.21
2023-04-20T06:51:01.617Z,27.73
2023-04-20T06:53:28.939Z,27.16
2023-04-20T06:55:56.945Z,26.44
2023-04-20T06:58:24.162Z,26.47
2023-04-20T07:00:51.663Z,26.88
2023-04-20T07:03:19.542Z,28.22
2023-04-20T07:05:47.191Z,25.14
2023-04-20T07:08:16.169Z,25.19
2023-04-20T07:10:43.858Z,24.04
2023-04-20T07:13:11.053Z,24.81
2023-04-20T07:15:38.539Z,26.32
2023-04-20T07:18:06.467Z,28.32
2023-04-20T07:20:33.978Z,26.11
2023-04-20T07:23:01.141Z,25.46
2023-04-20T07:25:29.500Z,28.14
2023-04-20T07:27:56.649Z,30.57
2023-04-20T07:30:24.627Z,29.42
2023-04-20T07:32:52.423Z,28.17
2023-04-20T07:35:20.002Z,29.99
2023-04-20T07:37:47.638Z,30.39
2023-04-20T07:40:16.998Z,28.18
2023-04-20T07:42:44.204Z,29.16
2023-04-20T07:45:13.291Z,28.16
2023-04-20T07:47:41.268Z,30.02
2023-04-20T07:50:09.109Z,30.75
2023-04-20T07:52:36.431Z,29.10
2023-04-20T07:55:05.160Z,28.68
2023-04-20T07:57:32.391Z,30.32
2023-04-20T07:59:59.883Z,29.95
2023-04-20T08:02:27.152Z,34.32
2023-04-20T08:04:55.130Z,36.90
2023-04-20T08:07:22.652Z,38.88
2023-04-20T08:09:50.242Z,37.79
2023-04-20T08:12:17.449Z,39.88
2023-04-20T08:14:45.315Z,38.97
2023-04-20T08:17:12.536Z,39.29
2023-04-20T08:19:41.199Z,36.51
2023-04-20T08:22:12.360Z,40.16
2023-04-20T08:24:39.890Z,38.76
2023-04-20T08:27:08.977Z,37.53
2023-04-20T08:29:36.842Z,39.19
2023-04-20T08:32:04.185Z,39.14
2023-04-20T08:34:31.658Z,39.95
2023-04-20T08:36:59.013Z,34.48
2023-04-20T08:39:26.743Z,35.33
2023-04-20T08:41:55.797Z,31.64
2023-04-20T08:44:24.820Z,32.84
2023-04-20T08:46:52.164Z,35.05
2023-04-20T08:49:21.638Z,35.05
2023-04-20T08:51:49.296Z,33.94
2023-04-20T08:54:17.466Z,31.93
2023-04-20T08:56:47.861Z,29.28
2023-04-20T08:59:17.035Z,28.25
2023-04-20T09:01:45.502Z,28.13
2023-04-20T09:04:20.351Z,30.74
2023-04-20T09:06:52.628Z,31.57
2023-04-20T09:09:22.240Z,29.78
2023-04-20T09:12:10.390Z,33.21
2023-04-20T09:14:45.240Z,37.14
2023-04-20T09:17:14.689Z,38.00
2023-04-20T09:19:44.929Z,38.38
2023-04-20T09:22:12.517Z,39.96
2023-04-20T09:24:42.357Z,37.71
2023-04-20T09:27:17.139Z,35.47
2023-04-20T09:29:57.836Z,38.85
2023-04-20T09:32:26.119Z,37.63
2023-04-20T09:34:53.665Z,37.15
2023-04-20T09:37:22.784Z,39.32
2023-04-20T09:39:50.707Z,42.24
2023-04-20T09:42:18.300Z,39.65
2023-04-20T09:44:46.094Z,38.87
2023-04-20T09:47:17.967Z,38.88
2023-04-20T09:49:48.867Z,36.28
2023-04-20T09:52:19.448Z,40.26
2023-04-20T09:54:46.995Z,42.29
2023-04-20T09:57:14.998Z,41.33
2023-04-20T09:59:44.461Z,39.57
2023-04-20T10:02:12.723Z,41.22
2023-04-20T10:04:56.777Z,42.47
2023-04-20T10:07:26.448Z,41.90
2023-04-20T10:10:24.077Z,41.30
2023-04-20T10:12:53.272Z,39.25
2023-04-20T10:15:27.287Z,41.69
2023-04-20T10:17:54.749Z,40.64
2023-04-20T10:20:25.404Z,41.81
2023-04-20T10:22:53.497Z,39.23
2023-04-20T10:25:24.892Z,37.51
2023-04-20T10:27:59.295Z,38.52
2023-04-20T10:30:28.658Z,36.41
2023-04-20T10:33:08.159Z,33.36
2023-04-20T10:35:49.286Z,33.12
2023-04-20T10:38:29.328Z,36.48
2023-04-20T10:40:57.184Z,37.03
2023-04-20T10:43:24.370Z,39.62
2023-04-20T10:45:52.424Z,38.42
2023-04-20T10:48:19.748Z,41.97
2023-04-20T10:50:47.343Z,41.90
2023-04-20T10:53:22.854Z,41.90
2023-04-20T10:56:00.436Z,39.84
2023-04-20T10:58:27.705Z,38.15
2023-04-20T11:01:02.499Z,37.13
2023-04-20T11:03:31.414Z,36.24
2023-04-20T11:06:03.972Z,37.75
2023-04-20T11:08:41.958Z,39.05
2023-04-20T11:11:27.821Z,41.20
2023-04-20T11:14:08.586Z,42.10
2023-04-20T11:16:48.062Z,44.95
2023-04-20T11:19:23.970Z,48.01
2023-04-20T11:21:51.491Z,51.49
2023-04-20T11:24:23.315Z,53.26
2023-04-20T11:26:53.318Z,52.08
2023-04-20T11:29:39.863Z,54.37
2023-04-20T11:32:10.892Z,54.33
2023-04-20T11:34:39.496Z,54.55
2023-04-20T11:37:13.178Z,54.07
2023-04-20T11:39:40.399Z,53.34
2023-04-20T11:42:07.909Z,53.52
2023-04-20T11:44:36.846Z,54.25
2023-04-20T11:47:04.627Z,54.99
2023-04-20T11:49:31.904Z,55.94
2023-04-20T11:51:59.407Z,56.40
2023-04-20T11:54:28.477Z,55.55
2023-04-20T11:56:56.577Z,54.30
2023-04-20T11:59:23.852Z,54.47
2023-04-20T12:01:52.293Z,56.18
2023-04-20T12:04:19.715Z,57.27
2023-04-20T12:06:47.503Z,56.80
2023-04-20T12:09:15.033Z,55.62
2023-04-20T12:11:42.658Z,56.93
2023-04-20T12:14:09.846Z,57.14
2023-04-20T12:16:37.439Z,57.78
2023-04-20T12:19:04.635Z,58.80
2023-04-20T12:21:32.562Z,59.62
2023-04-20T12:23:59.767Z,59.31
2023-04-20T12:26:37.301Z,58.54
2023-04-20T12:29:05.387Z,59.25
2023-04-20T12:31:32.986Z,57.99
2023-04-20T12:34:00.297Z,55.77
2023-04-20T12:36:28.197Z,54.45
2023-04-20T12:38:56.150Z,54.53
2023-04-20T12:41:24.557Z,55.41
2023-04-20T12:43:52.090Z,56.46
2023-04-20T12:46:19.584Z,54.88
2023-04-20T12:48:46.813Z,54.44
2023-04-20T12:51:15.384Z,55.04
2023-04-20T12:53:42.703Z,55.68
2023-04-20T12:56:10.349Z,55.40
2023-04-20T12:58:37.559Z,54.90
2023-04-20T13:01:05.164Z,56.55
2023-04-20T13:03:32.997Z,58.21
2023-04-20T13:06:00.661Z,55.67
2023-04-20T13:08:27.820Z,54.22
2023-04-20T13:10:55.337Z,53.27
2023-04-20T13:13:22.552Z,54.15
2023-04-20T13:15:50.244Z,53.59
2023-04-20T13:18:17.473Z,52.26
2023-04-20T13:20:44.954Z,52.43
2023-04-20T13:23:12.214Z,54.02
2023-04-20T13:25:40.871Z,53.49
2023-04-20T13:28:08.167Z,55.03
2023-04-20T13:30:35.715Z,54.24
2023-04-20T13:33:03.997Z,52.67
2023-04-20T13:35:31.575Z,54.17
2023-04-20T13:37:58.960Z,52.56
2023-04-20T13:40:26.568Z,52.87
2023-04-20T13:42:53.852Z,53.67
2023-04-20T13:45:21.441Z,52.43
2023-04-20T13:47:48.646Z,52.72
2023-04-20T13:50:16.319Z,53.68
2023-04-20T13:52:43.512Z,53.74
2023-04-20T13:55:11.342Z,54.94
2023-04-20T13:57:38.977Z,53.27
2023-04-20T14:00:07.706Z,53.64
2023-04-20T14:02:35.917Z,56.01
2023-04-20T14:05:04.242Z,55.59
2023-04-20T14:07:32.250Z,53.64
2023-04-20T14:10:00.174Z,53.35
2023-04-20T14:12:27.727Z,53.50
2023-04-20T14:14:58.866Z,52.37
2023-04-20T14:17:26.787Z,52.10
2023-04-20T14:19:54.432Z,51.98
2023-04-20T14:22:21.674Z,51.68
2023-04-20T14:24:49.435Z,50.48
2023-04-20T14:27:16.656Z,51.93
2023-04-20T14:29:44.160Z,52.98
2023-04-20T14:32:11.287Z,52.74
2023-04-20T14:34:38.810Z,52.22
2023-04-20T14:37:06.046Z,52.25
2023-04-20T14:39:33.529Z,51.87
2023-04-20T14:42:01.268Z,51.60
2023-04-20T14:44:28.745Z,51.77
2023-04-20T14:46:57.225Z,51.37
2023-04-20T14:49:24.875Z,52.79
2023-04-20T14:51:52.055Z,51.31
2023-04-20T14:54:19.788Z,51.30
2023-04-20T14:56:47.192Z,51.32
2023-04-20T14:59:14.868Z,51.53
2023-04-20T15:01:54.909Z,52.09
2023-04-20T15:04:29.414Z,52.44
2023-04-20T15:06:56.991Z,52.23
2023-04-20T15:09:24.735Z,52.64
2023-04-20T15:11:51.953Z,51.72
2023-04-20T15:14:20.496Z,51.57
2023-04-20T15:16:47.872Z,51.76
2023-04-20T15:19:15.372Z,51.79
2023-04-20T15:21:43.463Z,51.73
2023-04-20T15:24:12.031Z,52.38
2023-04-20T15:26:39.203Z,51.84
2023-04-20T15:29:06.801Z,52.28
2023-04-20T15:31:34.014Z,50.92
2023-04-20T15:34:01.468Z,50.96
2023-04-20T15:36:28.739Z,51.52
2023-04-20T15:38:57.864Z,51.77
2023-04-20T15:41:25.778Z,50.43
2023-04-20T15:43:53.235Z,50.91
2023-04-20T15:46:24.366Z,50.75
2023-04-20T15:48:53.173Z,50.71
2023-04-20T15:51:20.557Z,51.72
2023-04-20T15:53:50.739Z,50.81
2023-04-20T15:56:22.749Z,51.32
2023-04-20T15:58:51.641Z,51.10
2023-04-20T16:01:20.134Z,51.28
2023-04-20T16:03:49.784Z,51.38
2023-04-20T16:06:17.208Z,51.63
2023-04-20T16:08:45.408Z,50.51
2023-04-20T16:11:12.620Z,51.30
2023-04-20T16:13:40.107Z,52.10
2023-04-20T16:16:07.851Z,52.39
2023-04-20T16:18:35.475Z,53.07
2023-04-20T16:21:02.743Z,53.42
2023-04-20T16:23:30.221Z,53.08
2023-04-20T16:25:57.459Z,53.32
2023-04-20T16:28:25.030Z,54.04
2023-04-20T16:30:52.257Z,53.22
2023-04-20T16:33:20.169Z,52.99
2023-04-20T16:35:47.395Z,53.41
2023-04-20T16:38:14.973Z,52.59
2023-04-20T16:40:43.597Z,53.16
2023-04-20T16:43:11.150Z,53.17
2023-04-20T16:45:39.165Z,54.10
2023-04-20T16:48:08.346Z,54.67
2023-04-20T16:50:38.121Z,55.21
2023-04-20T16:53:08.965Z,55.93
2023-04-20T16:55:36.179Z,56.57
2023-04-20T16:58:03.724Z,55.05
2023-04-20T17:00:32.286Z,55.24
2023-04-20T17:03:02.807Z,54.75
2023-04-20T17:05:30.273Z,55.74
2023-04-20T17:07:57.804Z,55.61
2023-04-20T17:10:25.443Z,55.95
2023-04-20T17:12:53.165Z,54.77
2023-04-20T17:15:20.721Z,54.68
2023-04-20T17:17:48.227Z,53.61
2023-04-20T17:20:16.139Z,54.30
2023-04-20T17:22:43.622Z,54.65
2023-04-20T17:25:10.860Z,54.47
2023-04-20T17:27:38.450Z,54.50
2023-04-20T17:30:06.401Z,54.77
2023-04-20T17:32:33.984Z,54.77
2023-04-20T17:35:01.287Z,54.29
2023-04-20T17:37:29.053Z,54.77
2023-04-20T17:39:56.219Z,55.45
2023-04-20T17:42:23.788Z,54.00
2023-04-20T17:44:51.548Z,55.03
2023-04-20T17:47:19.101Z,54.71
2023-04-20T17:49:46.414Z,55.05
2023-04-20T17:52:17.999Z,55.37
2023-04-20T17:54:46.079Z,56.05
2023-04-20T17:57:14.339Z,56.56
2023-04-20T17:59:42.428Z,57.32
2023-04-20T18:02:11.972Z,58.43
2023-04-20T18:04:39.493Z,57.70
2023-04-20T18:07:07.101Z,57.39
2023-04-20T18:09:34.272Z,57.67
2023-04-20T18:12:01.975Z,56.83
2023-04-20T18:14:29.253Z,56.40
2023-04-20T18:16:56.768Z,56.25
2023-04-20T18:19:23.964Z,56.84
2023-04-20T18:21:51.441Z,55.36
2023-04-20T18:24:18.870Z,56.14
2023-04-20T18:26:46.625Z,56.32
2023-04-20T18:29:13.785Z,56.51
2023-04-20T18:31:41.326Z,56.12
2023-04-20T18:34:10.512Z,55.60
2023-04-20T18:36:38.199Z,55.85
2023-04-20T18:39:06.293Z,55.04
2023-04-20T18:41:33.782Z,55.32
2023-04-20T18:44:01.464Z,55.05
2023-04-20T18:46:29.027Z,55.73
2023-04-20T18:48:56.253Z,54.35
2023-04-20T18:51:23.808Z,54.54
2023-04-20T18:53:51.085Z,53.42
2023-04-20T18:56:18.562Z,54.01
2023-04-20T18:58:45.850Z,53.88
2023-04-20T19:01:13.531Z,53.47
2023-04-20T19:03:40.984Z,52.83
2023-04-20T19:06:08.631Z,52.42
2023-04-20T19:08:35.907Z,52.25
2023-04-20T19:11:03.435Z,52.58
2023-04-20T19:13:30.878Z,52.89
2023-04-20T19:15:58.354Z,52.61
2023-04-20T19:18:26.925Z,52.43
2023-04-20T19:20:54.750Z,53.62
2023-04-20T19:23:22.235Z,53.94
2023-04-20T19:25:49.760Z,54.55
2023-04-20T19:28:17.036Z,54.70
2023-04-20T19:30:44.963Z,54.87
2023-04-20T19:33:12.362Z,54.72
2023-04-20T19:35:41.856Z,55.33
2023-04-20T19:38:09.167Z,55.11
2023-04-20T19:40:36.710Z,55.46
2023-04-20T19:43:03.964Z,55.12
2023-04-20T19:45:31.439Z,54.49
2023-04-20T19:47:58.714Z,54.40
2023-04-20T19:50:26.331Z,54.48
2023-04-20T19:52:53.797Z,54.34
2023-04-20T19:55:21.393Z,54.89
2023-04-20T19:57:48.758Z,55.23
2023-04-20T20:00:16.609Z,55.63
2023-04-20T20:02:44.249Z,55.78
2023-04-20T20:05:11.846Z,55.40
2023-04-20T20:07:39.146Z,55.97
2023-04-20T20:10:07.431Z,56.47
2023-04-20T20:12:34.649Z,57.38
2023-04-20T20:15:03.691Z,57.45
2023-04-20T20:17:32.483Z,56.80
2023-04-20T20:20:00.454Z,56.95
2023-04-20T20:22:27.728Z,57.14
2023-04-20T20:24:55.245Z,56.63
2023-04-20T20:27:22.452Z,56.88
2023-04-20T20:29:49.946Z,57.17
2023-04-20T20:32:17.193Z,56.49
2023-04-20T20:34:44.684Z,56.23
2023-04-20T20:37:12.044Z,56.38
2023-04-20T20:39:39.999Z,56.00
2023-04-20T20:42:09.224Z,56.71
2023-04-20T20:44:38.958Z,56.05
2023-04-20T20:47:06.826Z,55.83
2023-04-20T20:49:34.354Z,56.59
2023-04-20T20:52:02.408Z,56.87
2023-04-20T20:54:30.012Z,57.12
2023-04-20T20:56:57.722Z,57.19
2023-04-20T20:59:25.192Z,57.06
2023-04-20T21:01:52.383Z,57.92
2023-04-20T21:04:19.962Z,57.94
2023-04-20T21:06:47.206Z,58.15
2023-04-20T21:09:15.494Z,58.50
2023-04-20T21:11:42.680Z,58.03
2023-04-20T21:14:10.711Z,57.77
2023-04-20T21:16:37.934Z,58.39
2023-04-20T21:19:05.702Z,58.97
2023-04-20T21:21:33.993Z,59.45
2023-04-20T21:24:01.503Z,59.92
2023-04-20T21:26:34.902Z,59.76
2023-04-20T21:29:03.411Z,59.99
2023-04-20T21:31:31.525Z,59.70
2023-04-20T21:34:00.059Z,59.40
2023-04-20T21:36:28.002Z,59.68
2023-04-20T21:38:55.896Z,59.29
2023-04-20T21:41:23.347Z,59.70
2023-04-20T21:43:52.792Z,58.90
2023-04-20T21:46:20.006Z,59.15
2023-04-20T21:48:47.718Z,59.77
2023-04-20T21:51:16.381Z,59.79
2023-04-20T21:53:44.845Z,59.42
2023-04-20T21:56:12.692Z,59.41
2023-04-20T21:58:40.245Z,59.28
2023-04-20T22:01:07.658Z,59.43
2023-04-20T22:03:37.223Z,58.97
2023-04-20T22:06:06.577Z,59.05
2023-04-20T22:08:34.138Z,59.75
2023-04-20T22:11:01.355Z,59.68
2023-04-20T22:13:28.820Z,60.24
2023-04-20T22:15:56.300Z,59.90
2023-04-20T22:18:23.928Z,60.44
2023-04-20T22:20:51.537Z,60.34
2023-04-20T22:23:19.009Z,60.58
2023-04-20T22:25:46.322Z,60.42
2023-04-20T22:28:14.106Z,61.05
2023-04-20T22:30:42.578Z,62.08
2023-04-20T22:33:10.180Z,62.27
2023-04-20T22:35:37.584Z,61.56
2023-04-20T22:38:05.219Z,62.91
2023-04-20T22:40:32.494Z,62.72
2023-04-20T22:42:59.971Z,63.12
2023-04-20T22:45:27.154Z,64.21
2023-04-20T22:47:54.654Z,63.67
2023-04-20T22:50:21.831Z,63.09
2023-04-20T22:52:50.511Z,62.91
2023-04-20T22:55:17.798Z,62.62
2023-04-20T22:57:45.302Z,62.58
2023-04-20T23:00:13.940Z,62.39
2023-04-20T23:02:41.853Z,63.10
2023-04-20T23:05:09.761Z,63.19
2023-04-20T23:07:37.649Z,62.97
2023-04-20T23:10:06.182Z,62.95
2023-04-20T23:12:33.826Z,62.62
2023-04-20T23:15:01.469Z,62.95
2023-04-20T23:17:30.221Z,63.27
2023-04-20T23:19:57.459Z,63.42
2023-04-20T23:22:24.901Z,63.84
2023-04-20T23:24:52.190Z,63.83
2023-04-20T23:27:19.654Z,63.00
2023-04-20T23:29:46.812Z,64.19
2023-04-20T23:32:14.479Z,64.15
2023-04-20T23:34:41.666Z,64.78
2023-04-20T23:37:09.139Z,64.76
2023-04-20T23:39:37.811Z,65.18
2023-04-20T23:42:05.924Z,64.21
2023-04-20T23:44:33.242Z,64.70
2023-04-20T23:47:00.879Z,64.95
2023-04-20T23:49:28.110Z,65.90
2023-04-20T23:51:55.588Z,66.32
2023-04-20T23:54:22.767Z,65.76
2023-04-20T23:56:50.575Z,65.98
2023-04-20T23:59:18.151Z,65.37
